sensor_id;sensor_type;location;lat;lon;timestamp;P1;durP1;ratioP1;P2;durP2;ratioP2
76298;SDS011;65236;42.332;23.550;2022-11-25T00:02:04;8.07;;;7.57;;
76298;SDS011;65236;42.332;23.550;2022-11-25T00:04:29;9.00;;;8.47;;
76298;SDS011;65236;42.332;23.550;2022-11-25T00:07:00;7.65;;;7.15;;
76298;SDS011;65236;42.332;23.550;2022-11-25T00:09:26;8.98;;;8.48;;
76298;SDS011;65236;42.332;23.550;2022-11-25T00:11:52;8.37;;;7.87;;
76298;SDS011;65236;42.332;23.550;2022-11-25T00:14:17;8.77;;;8.27;;
76298;SDS011;65236;42.332;23.550;2022-11-25T00:16:43;8.53;;;8.03;;
76298;SDS011;65236;42.332;23.550;2022-11-25T00:19:08;7.28;;;6.80;;
76298;SDS011;65236;42.332;23.550;2022-11-25T00:21:34;8.40;;;7.90;;
76298;SDS011;65236;42.332;23.550;2022-11-25T00:24:00;9.53;;;8.93;;
76298;SDS011;65236;42.332;23.550;2022-11-25T00:26:28;9.15;;;8.60;;
76298;SDS011;65236;42.332;23.550;2022-11-25T00:28:56;8.38;;;7.88;;
76298;SDS011;65236;42.332;23.550;2022-11-25T00:31:24;8.60;;;8.10;;
76298;SDS011;65236;42.332;23.550;2022-11-25T00:33:51;8.07;;;7.57;;
76298;SDS011;65236;42.332;23.550;2022-11-25T00:36:25;9.60;;;9.00;;
76298;SDS011;65236;42.332;23.550;2022-11-25T00:38:59;9.32;;;8.73;;
76298;SDS011;65236;42.332;23.550;2022-11-25T00:41:34;8.50;;;8.00;;
76298;SDS011;65236;42.332;23.550;2022-11-25T00:44:18;8.63;;;8.13;;
76298;SDS011;65236;42.332;23.550;2022-11-25T00:47:00;7.50;;;7.00;;
76298;SDS011;65236;42.332;23.550;2022-11-25T00:49:30;8.60;;;8.10;;
76298;SDS011;65236;42.332;23.550;2022-11-25T00:51:56;9.40;;;8.80;;
76298;SDS011;65236;42.332;23.550;2022-11-25T00:54:21;8.07;;;7.57;;
76298;SDS011;65236;42.332;23.550;2022-11-25T00:56:47;8.10;;;7.60;;
76298;SDS011;65236;42.332;23.550;2022-11-25T00:59:12;6.87;;;6.47;;
76298;SDS011;65236;42.332;23.550;2022-11-25T01:01:38;8.68;;;8.18;;
76298;SDS011;65236;42.332;23.550;2022-11-25T01:04:04;9.53;;;8.93;;
76298;SDS011;65236;42.332;23.550;2022-11-25T01:06:30;8.88;;;8.38;;
76298;SDS011;65236;42.332;23.550;2022-11-25T01:08:55;9.13;;;8.60;;
76298;SDS011;65236;42.332;23.550;2022-11-25T01:11:21;9.07;;;8.53;;
76298;SDS011;65236;42.332;23.550;2022-11-25T01:13:48;7.75;;;7.25;;
76298;SDS011;65236;42.332;23.550;2022-11-25T01:16:15;7.60;;;7.10;;
76298;SDS011;65236;42.332;23.550;2022-11-25T01:18:43;8.33;;;7.83;;
76298;SDS011;65236;42.332;23.550;2022-11-25T01:23:34;8.27;;;7.77;;
76298;SDS011;65236;42.332;23.550;2022-11-25T01:26:00;9.87;;;9.27;;
76298;SDS011;65236;42.332;23.550;2022-11-25T01:28:27;8.23;;;7.72;;
76298;SDS011;65236;42.332;23.550;2022-11-25T01:31:03;9.47;;;8.87;;
76298;SDS011;65236;42.332;23.550;2022-11-25T01:33:29;9.52;;;8.93;;
76298;SDS011;65236;42.332;23.550;2022-11-25T01:35:59;8.65;;;8.15;;
76298;SDS011;65236;42.332;23.550;2022-11-25T01:38:32;8.75;;;8.25;;
76298;SDS011;65236;42.332;23.550;2022-11-25T01:40:58;9.63;;;9.02;;
76298;SDS011;65236;42.332;23.550;2022-11-25T01:43:24;10.17;;;9.57;;
76298;SDS011;65236;42.332;23.550;2022-11-25T01:45:50;10.38;;;9.77;;
76298;SDS011;65236;42.332;23.550;2022-11-25T01:48:20;9.05;;;8.55;;
76298;SDS011;65236;42.332;23.550;2022-11-25T01:50:51;7.55;;;7.05;;
76298;SDS011;65236;42.332;23.550;2022-11-25T01:53:17;8.07;;;7.57;;
76298;SDS011;65236;42.332;23.550;2022-11-25T01:55:46;9.37;;;8.77;;
76298;SDS011;65236;42.332;23.550;2022-11-25T01:58:25;9.63;;;9.02;;
76298;SDS011;65236;42.332;23.550;2022-11-25T02:00:54;8.45;;;7.95;;
76298;SDS011;65236;42.332;23.550;2022-11-25T02:03:21;9.10;;;8.60;;
76298;SDS011;65236;42.332;23.550;2022-11-25T02:05:54;8.45;;;7.95;;
76298;SDS011;65236;42.332;23.550;2022-11-25T02:08:23;8.35;;;7.85;;
76298;SDS011;65236;42.332;23.550;2022-11-25T02:10:51;8.85;;;8.35;;
76298;SDS011;65236;42.332;23.550;2022-11-25T02:13:19;7.33;;;6.83;;
76298;SDS011;65236;42.332;23.550;2022-11-25T02:15:46;8.90;;;8.40;;
76298;SDS011;65236;42.332;23.550;2022-11-25T02:18:11;7.67;;;7.17;;
76298;SDS011;65236;42.332;23.550;2022-11-25T02:20:37;8.25;;;7.75;;
76298;SDS011;65236;42.332;23.550;2022-11-25T02:25:52;8.57;;;8.07;;
76298;SDS011;65236;42.332;23.550;2022-11-25T02:28:20;8.15;;;7.65;;
76298;SDS011;65236;42.332;23.550;2022-11-25T02:30:48;7.95;;;7.45;;
76298;SDS011;65236;42.332;23.550;2022-11-25T02:33:14;8.80;;;8.30;;
76298;SDS011;65236;42.332;23.550;2022-11-25T02:35:46;8.00;;;7.50;;
76298;SDS011;65236;42.332;23.550;2022-11-25T02:38:23;8.55;;;8.05;;
76298;SDS011;65236;42.332;23.550;2022-11-25T02:43:29;8.23;;;7.73;;
76298;SDS011;65236;42.332;23.550;2022-11-25T02:48:36;8.20;;;7.70;;
76298;SDS011;65236;42.332;23.550;2022-11-25T02:51:03;8.53;;;8.03;;
76298;SDS011;65236;42.332;23.550;2022-11-25T02:53:30;8.50;;;8.00;;
76298;SDS011;65236;42.332;23.550;2022-11-25T02:55:55;7.80;;;7.30;;
76298;SDS011;65236;42.332;23.550;2022-11-25T02:58:21;8.20;;;7.70;;
76298;SDS011;65236;42.332;23.550;2022-11-25T03:00:46;8.50;;;8.00;;
76298;SDS011;65236;42.332;23.550;2022-11-25T03:03:12;8.32;;;7.82;;
76298;SDS011;65236;42.332;23.550;2022-11-25T03:05:38;8.00;;;7.50;;
76298;SDS011;65236;42.332;23.550;2022-11-25T03:08:04;8.25;;;7.75;;
76298;SDS011;65236;42.332;23.550;2022-11-25T03:10:30;8.85;;;8.35;;
76298;SDS011;65236;42.332;23.550;2022-11-25T03:12:56;10.13;;;9.52;;
76298;SDS011;65236;42.332;23.550;2022-11-25T03:15:21;8.73;;;8.23;;
76298;SDS011;65236;42.332;23.550;2022-11-25T03:17:47;8.23;;;7.73;;
76298;SDS011;65236;42.332;23.550;2022-11-25T03:20:12;9.03;;;8.53;;
76298;SDS011;65236;42.332;23.550;2022-11-25T03:22:39;8.10;;;7.60;;
76298;SDS011;65236;42.332;23.550;2022-11-25T03:25:05;8.05;;;7.55;;
76298;SDS011;65236;42.332;23.550;2022-11-25T03:27:35;7.90;;;7.40;;
76298;SDS011;65236;42.332;23.550;2022-11-25T03:30:01;7.45;;;6.95;;
76298;SDS011;65236;42.332;23.550;2022-11-25T03:32:28;9.70;;;9.10;;
76298;SDS011;65236;42.332;23.550;2022-11-25T03:34:53;8.60;;;8.10;;
76298;SDS011;65236;42.332;23.550;2022-11-25T03:37:18;7.23;;;6.73;;
76298;SDS011;65236;42.332;23.550;2022-11-25T03:39:44;7.80;;;7.30;;
76298;SDS011;65236;42.332;23.550;2022-11-25T03:42:10;7.80;;;7.30;;
76298;SDS011;65236;42.332;23.550;2022-11-25T03:44:36;8.43;;;7.93;;
76298;SDS011;65236;42.332;23.550;2022-11-25T03:47:02;7.22;;;6.78;;
76298;SDS011;65236;42.332;23.550;2022-11-25T03:49:27;7.97;;;7.47;;
76298;SDS011;65236;42.332;23.550;2022-11-25T03:51:53;9.70;;;9.10;;
76298;SDS011;65236;42.332;23.550;2022-11-25T03:54:18;9.03;;;8.47;;
76298;SDS011;65236;42.332;23.550;2022-11-25T03:56:44;7.82;;;7.32;;
76298;SDS011;65236;42.332;23.550;2022-11-25T03:59:10;7.77;;;7.27;;
76298;SDS011;65236;42.332;23.550;2022-11-25T04:01:35;8.63;;;8.13;;
76298;SDS011;65236;42.332;23.550;2022-11-25T04:04:01;6.97;;;6.57;;
76298;SDS011;65236;42.332;23.550;2022-11-25T04:06:27;9.75;;;9.15;;
76298;SDS011;65236;42.332;23.550;2022-11-25T04:08:52;9.37;;;8.77;;
76298;SDS011;65236;42.332;23.550;2022-11-25T04:11:18;8.67;;;8.17;;
76298;SDS011;65236;42.332;23.550;2022-11-25T04:13:43;6.68;;;6.28;;
76298;SDS011;65236;42.332;23.550;2022-11-25T04:16:16;7.47;;;6.97;;
76298;SDS011;65236;42.332;23.550;2022-11-25T04:18:46;8.45;;;7.95;;
76298;SDS011;65236;42.332;23.550;2022-11-25T04:21:11;7.17;;;6.73;;
76298;SDS011;65236;42.332;23.550;2022-11-25T04:23:37;8.73;;;8.23;;
76298;SDS011;65236;42.332;23.550;2022-11-25T04:26:02;7.77;;;7.27;;
76298;SDS011;65236;42.332;23.550;2022-11-25T04:28:28;7.25;;;6.78;;
76298;SDS011;65236;42.332;23.550;2022-11-25T04:30:53;6.13;;;5.73;;
76298;SDS011;65236;42.332;23.550;2022-11-25T04:33:18;8.63;;;8.13;;
76298;SDS011;65236;42.332;23.550;2022-11-25T04:35:44;7.67;;;7.17;;
76298;SDS011;65236;42.332;23.550;2022-11-25T04:38:09;8.70;;;8.20;;
76298;SDS011;65236;42.332;23.550;2022-11-25T04:40:35;7.63;;;7.13;;
76298;SDS011;65236;42.332;23.550;2022-11-25T04:43:00;9.37;;;8.77;;
76298;SDS011;65236;42.332;23.550;2022-11-25T04:45:26;8.37;;;7.87;;
76298;SDS011;65236;42.332;23.550;2022-11-25T04:47:51;8.60;;;8.10;;
76298;SDS011;65236;42.332;23.550;2022-11-25T04:50:18;6.78;;;6.38;;
76298;SDS011;65236;42.332;23.550;2022-11-25T04:52:46;8.63;;;8.13;;
76298;SDS011;65236;42.332;23.550;2022-11-25T04:55:12;9.80;;;9.20;;
76298;SDS011;65236;42.332;23.550;2022-11-25T04:57:43;8.47;;;7.97;;
76298;SDS011;65236;42.332;23.550;2022-11-25T05:00:13;7.57;;;7.07;;
76298;SDS011;65236;42.332;23.550;2022-11-25T05:02:39;9.60;;;9.00;;
76298;SDS011;65236;42.332;23.550;2022-11-25T05:05:05;8.80;;;8.30;;
76298;SDS011;65236;42.332;23.550;2022-11-25T05:07:31;8.13;;;7.63;;
76298;SDS011;65236;42.332;23.550;2022-11-25T05:09:57;8.00;;;7.50;;
76298;SDS011;65236;42.332;23.550;2022-11-25T05:12:23;8.10;;;7.60;;
76298;SDS011;65236;42.332;23.550;2022-11-25T05:14:50;8.27;;;7.78;;
76298;SDS011;65236;42.332;23.550;2022-11-25T05:17:17;8.23;;;7.72;;
76298;SDS011;65236;42.332;23.550;2022-11-25T05:19:46;8.50;;;8.00;;
76298;SDS011;65236;42.332;23.550;2022-11-25T05:22:13;8.93;;;8.43;;
76298;SDS011;65236;42.332;23.550;2022-11-25T05:24:40;10.05;;;9.45;;
76298;SDS011;65236;42.332;23.550;2022-11-25T05:27:05;10.30;;;9.70;;
76298;SDS011;65236;42.332;23.550;2022-11-25T05:29:31;8.98;;;8.48;;
76298;SDS011;65236;42.332;23.550;2022-11-25T05:31:57;8.37;;;7.87;;
76298;SDS011;65236;42.332;23.550;2022-11-25T05:34:22;7.90;;;7.40;;
76298;SDS011;65236;42.332;23.550;2022-11-25T05:36:47;8.30;;;7.80;;
76298;SDS011;65236;42.332;23.550;2022-11-25T05:39:13;7.07;;;6.63;;
76298;SDS011;65236;42.332;23.550;2022-11-25T05:41:38;8.87;;;8.37;;
76298;SDS011;65236;42.332;23.550;2022-11-25T05:44:04;7.73;;;7.23;;
76298;SDS011;65236;42.332;23.550;2022-11-25T05:46:29;8.50;;;8.00;;
76298;SDS011;65236;42.332;23.550;2022-11-25T05:48:55;9.37;;;8.77;;
76298;SDS011;65236;42.332;23.550;2022-11-25T05:51:22;6.57;;;6.18;;
76298;SDS011;65236;42.332;23.550;2022-11-25T05:53:49;8.85;;;8.32;;
76298;SDS011;65236;42.332;23.550;2022-11-25T05:56:14;9.38;;;8.77;;
76298;SDS011;65236;42.332;23.550;2022-11-25T05:58:40;7.60;;;7.10;;
76298;SDS011;65236;42.332;23.550;2022-11-25T06:01:09;7.50;;;7.00;;
76298;SDS011;65236;42.332;23.550;2022-11-25T06:03:35;8.65;;;8.15;;
76298;SDS011;65236;42.332;23.550;2022-11-25T06:06:01;9.77;;;9.18;;
76298;SDS011;65236;42.332;23.550;2022-11-25T06:08:27;8.48;;;7.97;;
76298;SDS011;65236;42.332;23.550;2022-11-25T06:10:53;7.93;;;7.43;;
76298;SDS011;65236;42.332;23.550;2022-11-25T06:13:19;9.20;;;8.60;;
76298;SDS011;65236;42.332;23.550;2022-11-25T06:15:45;8.73;;;8.23;;
76298;SDS011;65236;42.332;23.550;2022-11-25T06:18:11;8.88;;;8.27;;
76298;SDS011;65236;42.332;23.550;2022-11-25T06:20:39;9.15;;;8.55;;
76298;SDS011;65236;42.332;23.550;2022-11-25T06:23:05;9.90;;;9.30;;
76298;SDS011;65236;42.332;23.550;2022-11-25T06:25:31;11.05;;;10.35;;
76298;SDS011;65236;42.332;23.550;2022-11-25T06:27:58;9.57;;;8.98;;
76298;SDS011;65236;42.332;23.550;2022-11-25T06:30:23;9.47;;;8.77;;
76298;SDS011;65236;42.332;23.550;2022-11-25T06:32:50;9.82;;;9.10;;
76298;SDS011;65236;42.332;23.550;2022-11-25T06:35:15;8.93;;;8.32;;
76298;SDS011;65236;42.332;23.550;2022-11-25T06:37:41;8.03;;;7.47;;
76298;SDS011;65236;42.332;23.550;2022-11-25T06:40:06;9.87;;;9.27;;
76298;SDS011;65236;42.332;23.550;2022-11-25T06:42:33;8.15;;;7.65;;
76298;SDS011;65236;42.332;23.550;2022-11-25T06:44:58;8.63;;;8.03;;
76298;SDS011;65236;42.332;23.550;2022-11-25T06:47:24;9.70;;;9.00;;
76298;SDS011;65236;42.332;23.550;2022-11-25T06:49:49;8.77;;;8.17;;
76298;SDS011;65236;42.332;23.550;2022-11-25T06:52:15;9.68;;;9.07;;
76298;SDS011;65236;42.332;23.550;2022-11-25T06:54:40;9.83;;;9.23;;
76298;SDS011;65236;42.332;23.550;2022-11-25T06:57:06;8.37;;;7.77;;
76298;SDS011;65236;42.332;23.550;2022-11-25T06:59:32;8.05;;;7.55;;
76298;SDS011;65236;42.332;23.550;2022-11-25T07:01:58;10.57;;;9.97;;
76298;SDS011;65236;42.332;23.550;2022-11-25T07:04:23;8.37;;;7.87;;
76298;SDS011;65236;42.332;23.550;2022-11-25T07:06:49;8.73;;;8.13;;
76298;SDS011;65236;42.332;23.550;2022-11-25T07:09:15;8.93;;;8.35;;
76298;SDS011;65236;42.332;23.550;2022-11-25T07:11:41;10.03;;;9.33;;
76298;SDS011;65236;42.332;23.550;2022-11-25T07:14:10;8.93;;;8.43;;
76298;SDS011;65236;42.332;23.550;2022-11-25T07:16:42;8.07;;;7.57;;
76298;SDS011;65236;42.332;23.550;2022-11-25T07:19:09;7.95;;;7.45;;
76298;SDS011;65236;42.332;23.550;2022-11-25T07:21:37;8.48;;;7.97;;
76298;SDS011;65236;42.332;23.550;2022-11-25T07:24:04;7.03;;;6.63;;
76298;SDS011;65236;42.332;23.550;2022-11-25T07:26:34;8.00;;;7.50;;
76298;SDS011;65236;42.332;23.550;2022-11-25T07:29:03;9.23;;;8.63;;
76298;SDS011;65236;42.332;23.550;2022-11-25T07:31:31;8.25;;;7.75;;
76298;SDS011;65236;42.332;23.550;2022-11-25T07:34:03;7.60;;;7.10;;
76298;SDS011;65236;42.332;23.550;2022-11-25T07:36:34;7.37;;;6.87;;
76298;SDS011;65236;42.332;23.550;2022-11-25T07:39:01;7.90;;;7.32;;
76298;SDS011;65236;42.332;23.550;2022-11-25T07:41:29;9.23;;;8.63;;
76298;SDS011;65236;42.332;23.550;2022-11-25T07:43:56;8.73;;;8.13;;
76298;SDS011;65236;42.332;23.550;2022-11-25T07:46:30;9.43;;;8.73;;
76298;SDS011;65236;42.332;23.550;2022-11-25T07:48:58;9.17;;;8.57;;
76298;SDS011;65236;42.332;23.550;2022-11-25T07:53:57;11.75;;;10.93;;
76298;SDS011;65236;42.332;23.550;2022-11-25T07:56:24;9.52;;;8.93;;
76298;SDS011;65236;42.332;23.550;2022-11-25T07:58:50;10.33;;;9.63;;
76298;SDS011;65236;42.332;23.550;2022-11-25T08:01:15;11.40;;;10.63;;
76298;SDS011;65236;42.332;23.550;2022-11-25T08:03:42;9.70;;;9.10;;
76298;SDS011;65236;42.332;23.550;2022-11-25T08:06:10;10.15;;;9.55;;
76298;SDS011;65236;42.332;23.550;2022-11-25T08:08:37;9.63;;;9.02;;
76298;SDS011;65236;42.332;23.550;2022-11-25T08:11:11;9.35;;;8.75;;
76298;SDS011;65236;42.332;23.550;2022-11-25T08:13:38;8.43;;;7.93;;
76298;SDS011;65236;42.332;23.550;2022-11-25T08:16:04;8.38;;;7.88;;
76298;SDS011;65236;42.332;23.550;2022-11-25T08:18:30;8.50;;;8.00;;
76298;SDS011;65236;42.332;23.550;2022-11-25T08:20:59;10.37;;;9.67;;
76298;SDS011;65236;42.332;23.550;2022-11-25T08:23:26;9.10;;;8.50;;
76298;SDS011;65236;42.332;23.550;2022-11-25T08:25:52;8.83;;;8.23;;
76298;SDS011;65236;42.332;23.550;2022-11-25T08:28:17;9.25;;;8.65;;
76298;SDS011;65236;42.332;23.550;2022-11-25T08:30:43;11.07;;;10.37;;
76298;SDS011;65236;42.332;23.550;2022-11-25T08:33:08;9.60;;;9.00;;
76298;SDS011;65236;42.332;23.550;2022-11-25T08:35:34;9.38;;;8.77;;
76298;SDS011;65236;42.332;23.550;2022-11-25T08:38:05;12.60;;;11.80;;
76298;SDS011;65236;42.332;23.550;2022-11-25T08:40:32;12.95;;;12.20;;
76298;SDS011;65236;42.332;23.550;2022-11-25T08:42:58;13.23;;;12.43;;
76298;SDS011;65236;42.332;23.550;2022-11-25T08:45:24;13.25;;;12.43;;
76298;SDS011;65236;42.332;23.550;2022-11-25T08:47:49;11.80;;;11.00;;
76298;SDS011;65236;42.332;23.550;2022-11-25T08:50:15;12.07;;;11.37;;
76298;SDS011;65236;42.332;23.550;2022-11-25T08:52:40;13.20;;;12.40;;
76298;SDS011;65236;42.332;23.550;2022-11-25T08:55:06;13.90;;;13.10;;
76298;SDS011;65236;42.332;23.550;2022-11-25T08:57:32;11.65;;;10.85;;
76298;SDS011;65236;42.332;23.550;2022-11-25T08:59:58;14.93;;;14.02;;
76298;SDS011;65236;42.332;23.550;2022-11-25T09:02:24;12.63;;;11.90;;
76298;SDS011;65236;42.332;23.550;2022-11-25T09:04:50;12.57;;;11.87;;
76298;SDS011;65236;42.332;23.550;2022-11-25T09:07:15;13.50;;;12.70;;
76298;SDS011;65236;42.332;23.550;2022-11-25T09:09:40;16.23;;;15.23;;
76298;SDS011;65236;42.332;23.550;2022-11-25T09:12:06;16.13;;;15.23;;
76298;SDS011;65236;42.332;23.550;2022-11-25T09:14:31;14.27;;;13.37;;
76298;SDS011;65236;42.332;23.550;2022-11-25T09:16:57;14.37;;;13.47;;
76298;SDS011;65236;42.332;23.550;2022-11-25T09:19:22;16.75;;;15.75;;
76298;SDS011;65236;42.332;23.550;2022-11-25T09:21:48;12.13;;;11.43;;
76298;SDS011;65236;42.332;23.550;2022-11-25T09:24:13;12.97;;;12.20;;
76298;SDS011;65236;42.332;23.550;2022-11-25T09:26:39;17.50;;;16.50;;
76298;SDS011;65236;42.332;23.550;2022-11-25T09:29:06;14.50;;;13.70;;
76298;SDS011;65236;42.332;23.550;2022-11-25T09:31:32;14.98;;;14.15;;
76298;SDS011;65236;42.332;23.550;2022-11-25T09:33:57;15.67;;;14.77;;
76298;SDS011;65236;42.332;23.550;2022-11-25T09:36:23;12.60;;;11.85;;
76298;SDS011;65236;42.332;23.550;2022-11-25T09:38:49;13.70;;;12.90;;
76298;SDS011;65236;42.332;23.550;2022-11-25T09:44:12;15.80;;;14.80;;
76298;SDS011;65236;42.332;23.550;2022-11-25T09:47:27;15.95;;;15.02;;
76298;SDS011;65236;42.332;23.550;2022-11-25T09:50:16;11.03;;;10.33;;
76298;SDS011;65236;42.332;23.550;2022-11-25T09:56:02;18.10;;;17.10;;
76298;SDS011;65236;42.332;23.550;2022-11-25T10:01:06;10.82;;;10.18;;
76298;SDS011;65236;42.332;23.550;2022-11-25T10:06:34;14.23;;;13.43;;
76298;SDS011;65236;42.332;23.550;2022-11-25T10:09:11;13.93;;;13.13;;
76298;SDS011;65236;42.332;23.550;2022-11-25T10:11:47;8.65;;;8.15;;
76298;SDS011;65236;42.332;23.550;2022-11-25T10:21:53;19.15;;;18.05;;
76298;SDS011;65236;42.332;23.550;2022-11-25T10:24:18;13.10;;;12.30;;
76298;SDS011;65236;42.332;23.550;2022-11-25T10:26:48;13.10;;;12.30;;
76298;SDS011;65236;42.332;23.550;2022-11-25T10:29:21;9.43;;;8.82;;
76298;SDS011;65236;42.332;23.550;2022-11-25T10:32:17;10.68;;;10.00;;
76298;SDS011;65236;42.332;23.550;2022-11-25T10:35:11;9.83;;;9.23;;
76298;SDS011;65236;42.332;23.550;2022-11-25T10:37:41;9.98;;;9.27;;
76298;SDS011;65236;42.332;23.550;2022-11-25T10:40:13;8.35;;;7.75;;
76298;SDS011;65236;42.332;23.550;2022-11-25T10:42:40;9.13;;;8.50;;
76298;SDS011;65236;42.332;23.550;2022-11-25T10:45:06;9.63;;;8.95;;
76298;SDS011;65236;42.332;23.550;2022-11-25T10:50:40;10.60;;;10.00;;
76298;SDS011;65236;42.332;23.550;2022-11-25T10:53:25;9.07;;;8.50;;
76298;SDS011;65236;42.332;23.550;2022-11-25T10:58:28;10.25;;;9.65;;
76298;SDS011;65236;42.332;23.550;2022-11-25T11:01:05;10.67;;;9.97;;
76298;SDS011;65236;42.332;23.550;2022-11-25T11:04:11;8.45;;;7.95;;
76298;SDS011;65236;42.332;23.550;2022-11-25T11:06:40;9.05;;;8.52;;
76298;SDS011;65236;42.332;23.550;2022-11-25T11:11:51;7.88;;;7.38;;
76298;SDS011;65236;42.332;23.550;2022-11-25T11:14:18;9.37;;;8.80;;
76298;SDS011;65236;42.332;23.550;2022-11-25T11:16:50;8.52;;;8.02;;
76298;SDS011;65236;42.332;23.550;2022-11-25T11:19:21;11.40;;;10.60;;
76298;SDS011;65236;42.332;23.550;2022-11-25T11:21:49;9.10;;;8.60;;
76298;SDS011;65236;42.332;23.550;2022-11-25T11:27:22;8.68;;;8.07;;
76298;SDS011;65236;42.332;23.550;2022-11-25T11:30:06;9.37;;;8.77;;
76298;SDS011;65236;42.332;23.550;2022-11-25T11:32:35;10.48;;;9.52;;
76298;SDS011;65236;42.332;23.550;2022-11-25T11:35:07;9.13;;;8.52;;
76298;SDS011;65236;42.332;23.550;2022-11-25T11:37:49;9.20;;;8.60;;
76298;SDS011;65236;42.332;23.550;2022-11-25T11:40:31;8.30;;;7.80;;
76298;SDS011;65236;42.332;23.550;2022-11-25T11:43:01;8.27;;;7.77;;
76298;SDS011;65236;42.332;23.550;2022-11-25T11:48:11;8.75;;;8.25;;
76298;SDS011;65236;42.332;23.550;2022-11-25T11:50:49;10.38;;;9.60;;
76298;SDS011;65236;42.332;23.550;2022-11-25T11:56:07;9.50;;;8.90;;
76298;SDS011;65236;42.332;23.550;2022-11-25T12:02:15;10.70;;;10.00;;
76298;SDS011;65236;42.332;23.550;2022-11-25T12:04:28;16.20;;;15.30;;
76298;SDS011;65236;42.332;23.550;2022-11-25T12:07:07;17.30;;;16.30;;
76298;SDS011;65236;42.332;23.550;2022-11-25T12:09:42;15.43;;;14.53;;
76298;SDS011;65236;42.332;23.550;2022-11-25T12:12:16;13.70;;;12.90;;
76298;SDS011;65236;42.332;23.550;2022-11-25T12:14:52;10.98;;;10.18;;
76298;SDS011;65236;42.332;23.550;2022-11-25T12:17:33;8.43;;;7.82;;
76298;SDS011;65236;42.332;23.550;2022-11-25T12:20:16;10.02;;;9.43;;
76298;SDS011;65236;42.332;23.550;2022-11-25T12:25:22;7.20;;;6.70;;
76298;SDS011;65236;42.332;23.550;2022-11-25T12:28:07;9.18;;;8.57;;
76298;SDS011;65236;42.332;23.550;2022-11-25T12:30:40;7.85;;;7.35;;
76298;SDS011;65236;42.332;23.550;2022-11-25T12:33:18;10.23;;;9.48;;
76298;SDS011;65236;42.332;23.550;2022-11-25T12:38:35;7.72;;;7.22;;
76298;SDS011;65236;42.332;23.550;2022-11-25T12:41:53;8.68;;;8.07;;
76298;SDS011;65236;42.332;23.550;2022-11-25T12:46:43;8.93;;;8.43;;
76298;SDS011;65236;42.332;23.550;2022-11-25T12:49:17;8.13;;;7.63;;
76298;SDS011;65236;42.332;23.550;2022-11-25T13:00:24;7.60;;;7.10;;
76298;SDS011;65236;42.332;23.550;2022-11-25T13:08:19;6.17;;;5.73;;
76298;SDS011;65236;42.332;23.550;2022-11-25T13:16:42;7.50;;;6.93;;
76298;SDS011;65236;42.332;23.550;2022-11-25T13:19:10;8.05;;;7.45;;
76298;SDS011;65236;42.332;23.550;2022-11-25T13:24:51;8.50;;;8.00;;
76298;SDS011;65236;42.332;23.550;2022-11-25T13:30:02;8.20;;;7.70;;
76298;SDS011;65236;42.332;23.550;2022-11-25T13:32:30;9.83;;;9.23;;
76298;SDS011;65236;42.332;23.550;2022-11-25T13:37:55;9.55;;;8.95;;
76298;SDS011;65236;42.332;23.550;2022-11-25T13:42:55;9.23;;;8.63;;
76298;SDS011;65236;42.332;23.550;2022-11-25T13:47:49;8.90;;;8.30;;
76298;SDS011;65236;42.332;23.550;2022-11-25T13:50:19;8.43;;;7.83;;
76298;SDS011;65236;42.332;23.550;2022-11-25T13:53:00;7.45;;;6.95;;
76298;SDS011;65236;42.332;23.550;2022-11-25T13:55:36;9.15;;;8.55;;
76298;SDS011;65236;42.332;23.550;2022-11-25T14:04:00;6.23;;;5.83;;
76298;SDS011;65236;42.332;23.550;2022-11-25T14:25:43;7.47;;;6.97;;
76298;SDS011;65236;42.332;23.550;2022-11-25T14:30:42;7.90;;;7.30;;
76298;SDS011;65236;42.332;23.550;2022-11-25T14:33:12;9.07;;;8.48;;
76298;SDS011;65236;42.332;23.550;2022-11-25T14:35:51;8.30;;;7.72;;
76298;SDS011;65236;42.332;23.550;2022-11-25T14:38:22;8.27;;;7.75;;
76298;SDS011;65236;42.332;23.550;2022-11-25T14:40:54;7.83;;;7.33;;
76298;SDS011;65236;42.332;23.550;2022-11-25T14:43:23;8.93;;;8.32;;
76298;SDS011;65236;42.332;23.550;2022-11-25T14:48:51;8.13;;;7.63;;
76298;SDS011;65236;42.332;23.550;2022-11-25T14:51:21;8.63;;;8.02;;
76298;SDS011;65236;42.332;23.550;2022-11-25T14:53:48;8.07;;;7.50;;
76298;SDS011;65236;42.332;23.550;2022-11-25T14:56:16;7.28;;;6.82;;
76298;SDS011;65236;42.332;23.550;2022-11-25T14:58:48;9.18;;;8.57;;
76298;SDS011;65236;42.332;23.550;2022-11-25T15:01:16;7.97;;;7.47;;
76298;SDS011;65236;42.332;23.550;2022-11-25T15:03:46;7.97;;;7.47;;
76298;SDS011;65236;42.332;23.550;2022-11-25T15:06:13;6.87;;;6.37;;
76298;SDS011;65236;42.332;23.550;2022-11-25T15:08:43;7.72;;;7.22;;
76298;SDS011;65236;42.332;23.550;2022-11-25T15:11:14;9.10;;;8.52;;
76298;SDS011;65236;42.332;23.550;2022-11-25T15:13:45;9.32;;;8.73;;
76298;SDS011;65236;42.332;23.550;2022-11-25T15:16:15;8.93;;;8.32;;
76298;SDS011;65236;42.332;23.550;2022-11-25T15:19:05;8.87;;;8.30;;
76298;SDS011;65236;42.332;23.550;2022-11-25T15:21:31;8.35;;;7.78;;
76298;SDS011;65236;42.332;23.550;2022-11-25T15:23:59;8.95;;;8.35;;
76298;SDS011;65236;42.332;23.550;2022-11-25T15:26:30;7.78;;;7.28;;
76298;SDS011;65236;42.332;23.550;2022-11-25T15:28:58;9.40;;;8.80;;
76298;SDS011;65236;42.332;23.550;2022-11-25T15:31:30;7.83;;;7.33;;
76298;SDS011;65236;42.332;23.550;2022-11-25T15:33:58;7.80;;;7.30;;
76298;SDS011;65236;42.332;23.550;2022-11-25T15:36:25;8.85;;;8.27;;
76298;SDS011;65236;42.332;23.550;2022-11-25T15:38:51;8.60;;;8.10;;
76298;SDS011;65236;42.332;23.550;2022-11-25T15:43:52;7.20;;;6.70;;
76298;SDS011;65236;42.332;23.550;2022-11-25T15:46:20;8.93;;;8.43;;
76298;SDS011;65236;42.332;23.550;2022-11-25T15:48:48;10.00;;;9.30;;
76298;SDS011;65236;42.332;23.550;2022-11-25T15:56:37;8.83;;;8.33;;
76298;SDS011;65236;42.332;23.550;2022-11-25T15:59:34;8.80;;;8.27;;
76298;SDS011;65236;42.332;23.550;2022-11-25T16:15:44;9.02;;;8.52;;
76298;SDS011;65236;42.332;23.550;2022-11-25T16:18:12;8.10;;;7.60;;
76298;SDS011;65236;42.332;23.550;2022-11-25T16:20:44;7.75;;;7.25;;
76298;SDS011;65236;42.332;23.550;2022-11-25T16:23:11;9.00;;;8.47;;
76298;SDS011;65236;42.332;23.550;2022-11-25T16:25:39;8.38;;;7.88;;
76298;SDS011;65236;42.332;23.550;2022-11-25T16:28:17;8.73;;;8.23;;
76298;SDS011;65236;42.332;23.550;2022-11-25T16:30:44;10.32;;;9.70;;
76298;SDS011;65236;42.332;23.550;2022-11-25T16:33:09;8.37;;;7.87;;
76298;SDS011;65236;42.332;23.550;2022-11-25T16:35:35;9.30;;;8.70;;
76298;SDS011;65236;42.332;23.550;2022-11-25T16:38:01;9.48;;;8.88;;
76298;SDS011;65236;42.332;23.550;2022-11-25T16:40:26;8.13;;;7.63;;
76298;SDS011;65236;42.332;23.550;2022-11-25T16:42:53;8.43;;;7.93;;
76298;SDS011;65236;42.332;23.550;2022-11-25T16:45:24;7.15;;;6.70;;
76298;SDS011;65236;42.332;23.550;2022-11-25T16:47:51;8.90;;;8.30;;
76298;SDS011;65236;42.332;23.550;2022-11-25T16:50:17;6.63;;;6.23;;
76298;SDS011;65236;42.332;23.550;2022-11-25T16:52:43;9.02;;;8.50;;
76298;SDS011;65236;42.332;23.550;2022-11-25T16:55:09;8.30;;;7.80;;
76298;SDS011;65236;42.332;23.550;2022-11-25T16:57:35;8.63;;;8.13;;
76298;SDS011;65236;42.332;23.550;2022-11-25T17:00:03;10.13;;;9.52;;
76298;SDS011;65236;42.332;23.550;2022-11-25T17:02:36;9.15;;;8.55;;
76298;SDS011;65236;42.332;23.550;2022-11-25T17:05:23;8.33;;;7.83;;
76298;SDS011;65236;42.332;23.550;2022-11-25T17:07:48;8.05;;;7.55;;